Terminal Aerodrome Forecast
Issued by NWS Topeka, KS

Home | Current Version | Previous Version | Text Only | Print | Product List | Glossary Off
Versions: 1 2 3 4 5 6 7 8 9 10 11 12 13 14 15 16 17 18 19 20 21 22 23 24 25 26

119
FTUS43 KTOP 280415 AAA
TAFTOP
TAF AMD
KTOP 280415Z 2804/2824 04005KT P6SM OVC025
     FM281000 05004KT P6SM OVC017
     FM281800 07010KT P6SM BKN025=

USA.gov is the U.S. government's official web portal to all federal, state and local government web resources and services.